KSTK/STK METAR and TAF weather

Enter ICAO airport designator
Station Type Date Time Source
KSTK METAR 2019/11/21 03:50 UTC NOAA

KSTK 210350Z AUTO 36008KT 3SM -SN SCT008 BKN013 OVC024 00/00 A2996 RMK AO2


Station Type Date Time Source
KSTK Decoded METAR 2019/11/21 03:50 UTC NOAA

Station name not available
Nov 20, 2019 - 10:50 PM EST / 2019.11.21 0350 UTC
Wind: from the N (360 degrees) at 9 MPH (8 KT):0
Visibility: 3 mile(s):0
Sky conditions: overcast
Weather: light snow
Temperature: 32 F (0 C)
Windchill: 24 F (-4 C):1
Dew Point: 32 F (0 C)
Relative Humidity: 100%
Pressure (altimeter): 29.96 in. Hg (1014 hPa)
ob: KSTK 210350Z AUTO 36008KT 3SM -SN SCT008 BKN013 OVC024 00/00 A2996 RMK AO2
cycle: 4

Station Type Date Time Source
KSTK TAF UTC NOAA

Error!

Example: see airport list